createdAt,value
2019-05-05T00:02:36.619Z,3.57
2019-05-05T00:05:29.244Z,4.17
2019-05-05T00:08:15.333Z,2.97
2019-05-05T00:11:35.936Z,3.30
2019-05-05T00:14:41.662Z,3.43
2019-05-05T00:17:28.736Z,2.80
2019-05-05T00:20:15.029Z,2.57
2019-05-05T00:23:00.909Z,2.70
2019-05-05T00:25:47.397Z,2.60
2019-05-05T00:28:35.377Z,2.73
2019-05-05T00:31:21.759Z,2.30
2019-05-05T00:34:07.768Z,3.10
2019-05-05T00:36:55.201Z,2.97
2019-05-05T00:39:41.155Z,3.27
2019-05-05T00:42:27.122Z,3.33
2019-05-05T00:45:14.756Z,2.80
2019-05-05T00:48:24.590Z,2.57
2019-05-05T00:51:10.835Z,1.90
2019-05-05T00:53:57.166Z,2.60
2019-05-05T00:56:45.038Z,2.63
2019-05-05T00:59:31.500Z,2.70
2019-05-05T01:02:44.917Z,3.70
2019-05-05T01:05:38.207Z,2.03
2019-05-05T01:08:26.397Z,2.63
2019-05-05T01:11:14.494Z,2.83
2019-05-05T01:14:00.771Z,3.43
2019-05-05T01:16:46.783Z,4.63
2019-05-05T01:19:34.854Z,2.40
2019-05-05T01:22:20.836Z,3.07
2019-05-05T01:25:07.185Z,3.27
2019-05-05T01:27:54.560Z,2.30
2019-05-05T01:30:44.519Z,1.67
2019-05-05T01:33:39.376Z,2.67
2019-05-05T01:36:25.339Z,2.60
2019-05-05T01:39:34.624Z,2.67
2019-05-05T01:42:21.052Z,2.83
2019-05-05T01:45:07.323Z,2.77
2019-05-05T01:47:54.520Z,2.80
2019-05-05T01:50:40.609Z,2.87
2019-05-05T01:53:29.120Z,1.57
2019-05-05T01:56:16.147Z,3.60
2019-05-05T01:59:02.363Z,2.90
2019-05-05T02:01:48.324Z,3.07
2019-05-05T02:04:34.391Z,2.40
2019-05-05T02:07:20.550Z,3.03
2019-05-05T02:10:06.858Z,2.23
2019-05-05T02:12:54.966Z,1.83
2019-05-05T02:15:40.999Z,2.80
2019-05-05T02:18:26.721Z,4.30
2019-05-05T02:21:14.288Z,2.03
2019-05-05T02:24:00.755Z,2.27
2019-05-05T02:26:46.459Z,1.63
2019-05-05T02:29:40.467Z,3.07
2019-05-05T02:32:45.019Z,3.37
2019-05-05T02:35:30.340Z,3.00
2019-05-05T02:38:16.924Z,2.30
2019-05-05T02:41:05.111Z,1.83
2019-05-05T02:43:51.049Z,2.53
2019-05-05T02:46:44.657Z,2.77
2019-05-05T02:49:30.779Z,2.10
2019-05-05T02:52:17.965Z,3.07
2019-05-05T02:55:04.171Z,1.57
2019-05-05T02:57:50.606Z,2.70
2019-05-05T03:01:14.311Z,2.67
2019-05-05T03:04:03.626Z,2.10
2019-05-05T03:06:51.168Z,2.50
2019-05-05T03:09:37.466Z,2.10
2019-05-05T03:12:24.351Z,2.97
2019-05-05T03:15:14.295Z,2.27
2019-05-05T03:18:01.272Z,1.70
2019-05-05T03:20:47.355Z,1.87
2019-05-05T03:23:34.471Z,1.50
2019-05-05T03:26:27.870Z,1.43
2019-05-05T03:29:17.892Z,3.80
2019-05-05T03:32:05.524Z,3.00
2019-05-05T03:34:53.718Z,2.43
2019-05-05T03:37:40.049Z,2.30
2019-05-05T03:40:28.999Z,2.07
2019-05-05T03:43:20.461Z,1.60
2019-05-05T03:46:08.021Z,1.73
2019-05-05T03:48:54.254Z,2.50
2019-05-05T03:51:40.451Z,2.33
2019-05-05T03:54:26.607Z,1.80
2019-05-05T03:57:14.132Z,1.80
2019-05-05T04:00:00.531Z,2.07
2019-05-05T04:02:54.605Z,1.33
2019-05-05T04:05:57.475Z,1.90
2019-05-05T04:08:44.555Z,1.97
2019-05-05T04:11:31.007Z,1.53
2019-05-05T04:14:18.561Z,2.53
2019-05-05T04:17:14.369Z,1.30
2019-05-05T04:20:03.812Z,1.33
2019-05-05T04:22:50.225Z,1.43
2019-05-05T04:25:36.599Z,1.30
2019-05-05T04:28:24.084Z,1.10
2019-05-05T04:31:10.505Z,2.10
2019-05-05T04:33:56.640Z,1.33
2019-05-05T04:36:44.398Z,1.47
2019-05-05T04:39:30.603Z,1.47
2019-05-05T04:42:16.991Z,1.63
2019-05-05T04:45:04.265Z,1.17
2019-05-05T04:47:54.454Z,1.33
2019-05-05T04:50:46.520Z,1.00
2019-05-05T04:53:39.123Z,1.17
2019-05-05T04:56:25.255Z,1.30
2019-05-05T04:59:11.743Z,1.27
2019-05-05T05:02:03.904Z,1.63
2019-05-05T05:04:54.335Z,1.73
2019-05-05T05:07:40.088Z,1.73
2019-05-05T05:10:26.587Z,0.67
2019-05-05T05:13:13.846Z,1.00
2019-05-05T05:16:00.241Z,0.53
2019-05-05T05:18:46.604Z,1.27
2019-05-05T05:21:34.246Z,0.93
2019-05-05T05:24:23.558Z,1.10
2019-05-05T05:27:09.524Z,0.70
2019-05-05T05:29:55.937Z,0.90
2019-05-05T05:32:44.349Z,1.43
2019-05-05T05:35:30.338Z,0.90
2019-05-05T05:38:16.266Z,1.23
2019-05-05T05:41:24.983Z,1.00
2019-05-05T05:44:18.168Z,1.13
2019-05-05T05:47:14.804Z,1.70
2019-05-05T05:50:24.520Z,0.87
2019-05-05T05:53:10.939Z,1.87
2019-05-05T05:55:57.356Z,1.47
2019-05-05T05:58:44.179Z,1.30
2019-05-05T06:01:30.375Z,3.23
2019-05-05T06:04:16.952Z,1.90
2019-05-05T06:07:04.054Z,2.63
2019-05-05T06:09:50.526Z,1.13
2019-05-05T06:12:36.944Z,1.17
2019-05-05T06:15:24.446Z,0.90
2019-05-05T06:18:10.459Z,2.00
2019-05-05T06:20:56.424Z,2.37
2019-05-05T06:23:43.758Z,1.83
2019-05-05T06:26:29.956Z,2.57
2019-05-05T06:29:15.871Z,1.80
2019-05-05T06:32:03.965Z,3.00
2019-05-05T06:34:49.960Z,1.20
2019-05-05T06:37:38.241Z,1.70
2019-05-05T06:40:45.368Z,1.23
2019-05-05T06:43:51.483Z,2.00
2019-05-05T06:46:58.175Z,1.80
2019-05-05T06:49:49.435Z,1.70
2019-05-05T06:52:43.689Z,1.53
2019-05-05T06:55:29.547Z,1.87
2019-05-05T06:58:15.557Z,1.73
2019-05-05T07:01:03.601Z,1.93
2019-05-05T07:03:49.458Z,2.80
2019-05-05T07:06:35.127Z,1.90
2019-05-05T07:09:20.825Z,2.60
2019-05-05T07:12:06.788Z,2.13
2019-05-05T07:14:53.804Z,1.60
2019-05-05T07:17:39.707Z,2.33
2019-05-05T07:20:25.812Z,1.00
2019-05-05T07:23:14.307Z,2.50
2019-05-05T07:25:59.823Z,3.63
2019-05-05T07:28:46.091Z,3.10
2019-05-05T07:31:34.273Z,1.80
2019-05-05T07:34:20.801Z,1.00
2019-05-05T07:37:06.699Z,1.97
2019-05-05T07:39:53.994Z,2.53
2019-05-05T07:42:40.410Z,1.83
2019-05-05T07:45:26.667Z,2.53
2019-05-05T07:48:13.813Z,0.90
2019-05-05T07:51:04.476Z,3.73
2019-05-05T07:53:47.925Z,2.33
2019-05-05T07:56:34.491Z,0.97
2019-05-05T07:59:20.469Z,2.47
2019-05-05T08:02:06.752Z,1.67
2019-05-05T08:04:54.455Z,1.60
2019-05-05T08:07:40.692Z,1.50
2019-05-05T08:10:26.935Z,4.13
2019-05-05T08:13:14.093Z,4.40
2019-05-05T08:16:03.806Z,3.73
2019-05-05T08:19:09.064Z,3.67
2019-05-05T08:21:55.059Z,4.13
2019-05-05T08:24:49.580Z,3.10
2019-05-05T08:28:01.580Z,5.00
2019-05-05T08:30:58.347Z,11.57
2019-05-05T08:33:44.496Z,10.17
2019-05-05T08:36:30.304Z,6.97
2019-05-05T08:39:16.137Z,24.60
2019-05-05T08:42:04.224Z,18.03
2019-05-05T08:44:53.734Z,12.00
2019-05-05T08:47:39.456Z,8.07
2019-05-05T08:50:27.106Z,10.10
2019-05-05T08:53:13.857Z,10.20
2019-05-05T08:55:59.947Z,7.80
2019-05-05T08:58:49.534Z,15.87
2019-05-05T09:01:34.365Z,11.87
2019-05-05T09:04:20.515Z,12.20
2019-05-05T09:07:06.330Z,12.17
2019-05-05T09:09:54.508Z,10.03
2019-05-05T09:12:40.524Z,9.40
2019-05-05T09:15:26.394Z,9.97
2019-05-05T09:18:14.156Z,29.83
2019-05-05T09:21:00.447Z,32.63
2019-05-05T09:23:58.931Z,30.97
2019-05-05T09:26:46.916Z,24.33
2019-05-05T09:29:37.859Z,21.70
2019-05-05T09:32:24.327Z,29.77
2019-05-05T09:35:11.175Z,51.40
2019-05-05T09:37:57.239Z,65.43
2019-05-05T09:40:43.982Z,54.43
2019-05-05T09:43:29.987Z,30.77
2019-05-05T09:46:15.843Z,18.93
2019-05-05T09:49:01.796Z,16.53
2019-05-05T09:51:47.452Z,22.70
2019-05-05T09:54:34.535Z,18.03
2019-05-05T09:57:20.776Z,10.37
2019-05-05T10:00:10.005Z,14.87
2019-05-05T10:02:55.923Z,14.10
2019-05-05T10:05:42.020Z,14.80
2019-05-05T10:08:27.795Z,8.77
2019-05-05T10:11:16.404Z,9.03
2019-05-05T10:14:01.455Z,10.37
2019-05-05T10:16:47.700Z,6.37
2019-05-05T10:19:33.570Z,7.10
2019-05-05T10:22:19.856Z,5.73
2019-05-05T10:25:24.437Z,4.93
2019-05-05T10:28:10.715Z,5.70
2019-05-05T10:30:57.313Z,4.60
2019-05-05T10:33:48.723Z,2.43
2019-05-05T10:36:34.961Z,3.07
2019-05-05T10:39:30.231Z,12.10
2019-05-05T10:42:16.099Z,10.73
2019-05-05T10:45:04.193Z,8.90
2019-05-05T10:47:49.977Z,8.67
2019-05-05T10:50:36.280Z,5.87
2019-05-05T10:53:22.679Z,5.83
2019-05-05T10:56:08.500Z,4.73
2019-05-05T10:58:54.969Z,6.13
2019-05-05T11:01:40.832Z,2.93
2019-05-05T11:04:26.700Z,4.47
2019-05-05T11:07:14.528Z,6.87
2019-05-05T11:10:03.289Z,5.57
2019-05-05T11:12:49.445Z,5.30
2019-05-05T11:15:35.784Z,4.30
2019-05-05T11:18:23.760Z,2.90
2019-05-05T11:21:10.536Z,2.40
2019-05-05T11:23:56.857Z,2.03
2019-05-05T11:26:44.541Z,2.70
2019-05-05T11:29:30.832Z,2.33
2019-05-05T11:32:36.096Z,2.43
2019-05-05T11:35:24.416Z,3.73
2019-05-05T11:38:10.592Z,2.80
2019-05-05T11:40:56.884Z,4.30
2019-05-05T11:43:43.250Z,5.80
2019-05-05T11:46:29.625Z,2.67
2019-05-05T11:49:15.439Z,2.40
2019-05-05T11:52:01.364Z,2.60
2019-05-05T11:54:47.908Z,3.63
2019-05-05T11:57:33.739Z,2.27
2019-05-05T12:00:19.720Z,3.47
2019-05-05T12:03:05.637Z,4.33
2019-05-05T12:05:56.256Z,7.77
2019-05-05T12:08:42.951Z,3.03
2019-05-05T12:11:27.947Z,3.03
2019-05-05T12:14:15.563Z,2.30
2019-05-05T12:17:01.683Z,3.30
2019-05-05T12:19:48.612Z,2.10
2019-05-05T12:22:34.918Z,2.40
2019-05-05T12:25:39.309Z,3.67
2019-05-05T12:28:38.756Z,2.83
2019-05-05T12:31:26.612Z,3.87
2019-05-05T12:34:12.859Z,2.93
2019-05-05T12:36:59.408Z,1.60
2019-05-05T12:39:45.142Z,2.10
2019-05-05T12:42:31.475Z,2.80
2019-05-05T12:45:21.387Z,3.77
2019-05-05T12:48:18.104Z,2.70
2019-05-05T12:51:04.362Z,2.37
2019-05-05T12:53:50.600Z,2.80
2019-05-05T12:56:37.033Z,3.53
2019-05-05T12:59:25.109Z,2.13
2019-05-05T13:02:11.199Z,3.23
2019-05-05T13:04:57.587Z,2.90
2019-05-05T13:07:44.124Z,2.13
2019-05-05T13:10:30.487Z,2.70
2019-05-05T13:13:16.491Z,1.90
2019-05-05T13:16:04.298Z,2.10
2019-05-05T13:18:50.827Z,3.03
2019-05-05T13:22:05.883Z,2.30
2019-05-05T13:25:17.494Z,2.27
2019-05-05T13:28:04.143Z,3.80
2019-05-05T13:30:51.125Z,3.80
2019-05-05T13:33:37.385Z,1.90
2019-05-05T13:36:24.202Z,3.77
2019-05-05T13:39:10.595Z,2.23
2019-05-05T13:41:57.214Z,3.57
2019-05-05T13:45:08.802Z,2.80
2019-05-05T13:47:54.971Z,2.40
2019-05-05T13:50:44.098Z,2.80
2019-05-05T13:53:30.187Z,3.60
2019-05-05T13:56:16.487Z,4.23
2019-05-05T13:59:02.391Z,3.30
2019-05-05T14:01:48.713Z,2.63
2019-05-05T14:04:35.871Z,4.13
2019-05-05T14:07:23.762Z,4.33
2019-05-05T14:10:09.712Z,1.70
2019-05-05T14:12:55.847Z,2.53
2019-05-05T14:15:43.957Z,2.60
2019-05-05T14:18:29.811Z,2.13
2019-05-05T14:21:15.978Z,1.63
2019-05-05T14:24:19.810Z,2.40
2019-05-05T14:27:06.335Z,2.10
2019-05-05T14:30:10.860Z,3.67
2019-05-05T14:32:57.884Z,3.37
2019-05-05T14:35:53.986Z,3.17
2019-05-05T14:38:44.447Z,3.20
2019-05-05T14:41:31.242Z,2.60
2019-05-05T14:44:17.361Z,2.23
2019-05-05T14:47:03.619Z,2.80
2019-05-05T14:49:50.032Z,1.90
2019-05-05T14:52:36.377Z,1.60
2019-05-05T14:55:22.659Z,2.47
2019-05-05T14:58:08.947Z,1.87
2019-05-05T15:00:54.791Z,1.67
2019-05-05T15:03:41.484Z,2.03
2019-05-05T15:06:47.555Z,2.47
2019-05-05T15:10:04.208Z,1.87
2019-05-05T15:12:56.380Z,2.33
2019-05-05T15:15:42.627Z,2.50
2019-05-05T15:18:29.076Z,1.70
2019-05-05T15:21:15.500Z,2.33
2019-05-05T15:24:01.956Z,2.00
2019-05-05T15:26:52.103Z,2.43
2019-05-05T15:29:36.396Z,2.23
2019-05-05T15:32:23.994Z,2.00
2019-05-05T15:35:10.520Z,2.03
2019-05-05T15:37:56.977Z,2.27
2019-05-05T15:40:44.979Z,1.77
2019-05-05T15:43:33.395Z,2.50
2019-05-05T15:46:19.771Z,2.10
2019-05-05T15:49:06.096Z,4.07
2019-05-05T15:51:53.983Z,3.47
2019-05-05T15:54:40.375Z,7.17
2019-05-05T15:57:26.696Z,2.13
2019-05-05T16:00:14.096Z,2.60
2019-05-05T16:03:00.556Z,1.50
2019-05-05T16:05:46.768Z,2.30
2019-05-05T16:08:33.943Z,4.07
2019-05-05T16:11:20.579Z,2.03
2019-05-05T16:14:06.902Z,2.00
2019-05-05T16:17:06.546Z,2.93
2019-05-05T16:19:59.087Z,2.23
2019-05-05T16:22:56.687Z,2.73
2019-05-05T16:25:46.323Z,2.40
2019-05-05T16:28:30.772Z,2.27
2019-05-05T16:31:17.047Z,4.10
2019-05-05T16:34:03.797Z,2.37
2019-05-05T16:36:50.390Z,1.30
2019-05-05T16:39:36.612Z,2.50
2019-05-05T16:42:23.970Z,2.83
2019-05-05T16:45:11.000Z,2.00
2019-05-05T16:47:57.275Z,2.63
2019-05-05T16:50:44.131Z,2.57
2019-05-05T16:53:37.363Z,2.80
2019-05-05T16:56:24.249Z,2.23
2019-05-05T16:59:10.512Z,1.40
2019-05-05T17:01:56.718Z,4.17
2019-05-05T17:04:43.429Z,2.13
2019-05-05T17:07:29.543Z,1.90
2019-05-05T17:10:16.358Z,1.73
2019-05-05T17:13:11.305Z,2.70
2019-05-05T17:16:14.704Z,1.87
2019-05-05T17:19:20.071Z,1.70
2019-05-05T17:22:09.856Z,2.10
2019-05-05T17:24:56.756Z,4.63
2019-05-05T17:27:48.716Z,4.40
2019-05-05T17:30:30.926Z,2.67
2019-05-05T17:33:17.171Z,3.03
2019-05-05T17:36:04.637Z,2.13
2019-05-05T17:38:50.944Z,1.97
2019-05-05T17:41:55.098Z,2.43
2019-05-05T17:44:54.240Z,2.20
2019-05-05T17:47:59.975Z,1.57
2019-05-05T17:51:23.944Z,2.97
2019-05-05T17:54:24.470Z,2.83
2019-05-05T17:57:10.871Z,2.00
2019-05-05T17:59:57.014Z,2.93
2019-05-05T18:02:43.785Z,2.33
2019-05-05T18:05:48.076Z,3.70
2019-05-05T18:08:36.532Z,2.00
2019-05-05T18:11:27.983Z,5.03
2019-05-05T18:14:21.328Z,3.27
2019-05-05T18:17:07.642Z,2.87
2019-05-05T18:19:54.079Z,4.77
2019-05-05T18:22:40.435Z,3.27
2019-05-05T18:25:26.810Z,1.53
2019-05-05T18:28:19.411Z,3.87
2019-05-05T18:31:01.450Z,2.53
2019-05-05T18:33:47.958Z,2.80
2019-05-05T18:36:34.380Z,1.87
2019-05-05T18:39:20.627Z,2.57
2019-05-05T18:42:13.833Z,1.73
2019-05-05T18:45:03.842Z,1.67
2019-05-05T18:47:50.156Z,2.90
2019-05-05T18:50:36.536Z,1.27
2019-05-05T18:53:22.981Z,2.47
2019-05-05T18:56:09.416Z,3.20
2019-05-05T18:59:04.516Z,4.10
2019-05-05T19:01:56.928Z,1.23
2019-05-05T19:05:05.495Z,2.20
2019-05-05T19:07:58.103Z,1.03
2019-05-05T19:10:44.168Z,1.50
2019-05-05T19:13:30.466Z,2.53
2019-05-05T19:16:16.670Z,1.07
2019-05-05T19:19:03.646Z,1.33
2019-05-05T19:21:54.721Z,1.30
2019-05-05T19:24:40.902Z,1.80
2019-05-05T19:27:27.306Z,1.30
2019-05-05T19:30:15.326Z,3.70
2019-05-05T19:33:01.788Z,1.80
2019-05-05T19:35:47.975Z,3.13
2019-05-05T19:38:39.656Z,1.90
2019-05-05T19:41:25.884Z,3.17
2019-05-05T19:44:15.262Z,2.23
2019-05-05T19:47:21.400Z,1.57
2019-05-05T19:50:19.727Z,2.87
2019-05-05T19:53:21.399Z,2.03
2019-05-05T19:56:07.279Z,1.20
2019-05-05T19:58:59.257Z,1.40
2019-05-05T20:01:44.700Z,1.63
2019-05-05T20:04:30.040Z,2.47
2019-05-05T20:07:15.979Z,1.80
2019-05-05T20:10:04.027Z,0.97
2019-05-05T20:12:50.280Z,3.73
2019-05-05T20:15:44.259Z,1.95
2019-05-05T20:18:30.635Z,1.33
2019-05-05T20:21:16.617Z,2.07
2019-05-05T20:24:03.767Z,1.40
2019-05-05T20:26:50.171Z,1.67
2019-05-05T20:29:37.584Z,2.40
2019-05-05T20:32:30.677Z,2.63
2019-05-05T20:35:24.019Z,1.27
2019-05-05T20:38:14.262Z,3.20
2019-05-05T20:41:17.133Z,0.83
2019-05-05T20:44:03.183Z,1.90
2019-05-05T20:46:49.637Z,1.40
2019-05-05T20:49:35.935Z,1.40
2019-05-05T20:52:23.704Z,1.70
2019-05-05T20:55:10.128Z,1.67
2019-05-05T20:57:56.404Z,2.60
2019-05-05T21:00:44.250Z,1.60
2019-05-05T21:03:30.368Z,1.20
2019-05-05T21:06:16.602Z,2.10
2019-05-05T21:09:04.348Z,1.30
2019-05-05T21:11:50.328Z,2.60
2019-05-05T21:14:38.170Z,1.07
2019-05-05T21:17:24.651Z,3.43
2019-05-05T21:20:10.809Z,1.20
2019-05-05T21:23:05.194Z,1.53
2019-05-05T21:25:55.019Z,1.47
2019-05-05T21:28:41.296Z,1.87
2019-05-05T21:31:27.676Z,1.43
2019-05-05T21:34:14.091Z,1.43
2019-05-05T21:37:00.548Z,1.70
2019-05-05T21:39:46.847Z,1.60
2019-05-05T21:42:34.869Z,1.83
2019-05-05T21:45:20.783Z,1.93
2019-05-05T21:48:06.615Z,2.67
2019-05-05T21:50:59.655Z,1.30
2019-05-05T21:53:51.083Z,1.07
2019-05-05T21:56:43.806Z,1.77
2019-05-05T21:59:29.972Z,1.60
2019-05-05T22:02:16.328Z,1.77
2019-05-05T22:05:03.992Z,1.30
2019-05-05T22:07:50.320Z,3.10
2019-05-05T22:10:36.996Z,5.53
2019-05-05T22:13:23.079Z,1.67
2019-05-05T22:16:09.499Z,0.83
2019-05-05T22:18:55.827Z,1.13
2019-05-05T22:21:46.143Z,1.27
2019-05-05T22:24:33.402Z,1.77
2019-05-05T22:27:20.364Z,2.80
2019-05-05T22:30:10.026Z,2.00
2019-05-05T22:32:54.564Z,1.17
2019-05-05T22:35:40.586Z,1.10
2019-05-05T22:38:26.787Z,2.50
2019-05-05T22:41:13.296Z,1.57
2019-05-05T22:44:00.772Z,1.23
2019-05-05T22:46:47.017Z,1.60
2019-05-05T22:49:33.383Z,1.10
2019-05-05T22:52:19.732Z,3.90
2019-05-05T22:55:05.688Z,1.73
2019-05-05T22:57:53.902Z,1.60
2019-05-05T23:00:39.911Z,1.63
2019-05-05T23:03:32.578Z,1.10
2019-05-05T23:06:21.274Z,2.93
2019-05-05T23:09:11.695Z,1.57
2019-05-05T23:11:57.552Z,1.60
2019-05-05T23:14:43.991Z,1.37
2019-05-05T23:17:55.782Z,2.20
2019-05-05T23:21:08.751Z,1.67
2019-05-05T23:24:20.451Z,1.50
2019-05-05T23:27:06.764Z,4.37
2019-05-05T23:29:54.594Z,1.70
2019-05-05T23:32:41.022Z,1.23
2019-05-05T23:35:27.376Z,1.40
2019-05-05T23:38:14.350Z,1.00
2019-05-05T23:41:01.179Z,1.67
2019-05-05T23:43:47.445Z,1.83
2019-05-05T23:46:34.853Z,2.03
2019-05-05T23:49:21.339Z,1.37
2019-05-05T23:52:07.080Z,1.63
2019-05-05T23:54:52.881Z,2.30
2019-05-05T23:57:39.624Z,2.00
